Agia Paraskevi — SY6096 — position and weather

sailwx.info

Track history (hours):
 
Tides and Currents Weather Stations Pressure Air Temp Water Temp Dewpoint Dewpoint Depression Visibility Wind Speed Wind Dir Waves Ship Positions

Agia Paraskevi

Last reported at 2017-Oct-15 07:32 UTC. Time now 2017-Oct-17 23:57 UTC.
Position N 37°19' E 023°23'.

Length 19 m; draft 1.5 m.

Type: Port tender. MMSI: 237935300.

Date/timePositionNaut miles runAvg speedWind from/ knotsBaromVisibWave heightAir tempDewpointWater temp
2017-Oct-15 07:32N 37°19' E 023°23'1 9.2
2017-Oct-15 07:24N 37°20' E 023°24'20 8.4
2017-Oct-15 05:00N 37°38' E 023°35'5 9.3
2017-Oct-15 04:30N 37°42' E 023°35'5 9.4
2017-Oct-15 04:00N 37°47' E 023°34'5 9.4
2017-Oct-15 03:31N 37°52' E 023°34'5 9.0
2017-Oct-15 03:00N 37°56' E 023°35'1 0.1
2017-Oct-14 11:57N 37°58' E 023°34'0 0.0
2017-Oct-14 11:30N 37°58' E 023°34'0 0.0
2017-Oct-14 10:58N 37°58' E 023°34'0 0.0
2017-Oct-14 10:28N 37°58' E 023°34'0 0.0
2017-Oct-14 09:57N 37°58' E 023°34'0 0.0
2017-Oct-14 09:25N 37°58' E 023°34'0 0.0
2017-Oct-14 09:00N 37°58' E 023°34'0 0.3
2017-Oct-14 08:30N 37°57' E 023°34'0 0.3
2017-Oct-14 07:58N 37°58' E 023°34'0 0.0
2017-Oct-13 10:07N 37°58' E 023°34'0 0.0
2017-Oct-13 09:57N 37°58' E 023°34'0 0.0
2017-Oct-13 08:00N 37°58' E 023°34'0 0.0
2017-Oct-13 05:18N 37°58' E 023°34'0 0.0
2017-Oct-12 10:41N 37°58' E 023°34'0 0.0
2017-Oct-12 09:57N 37°58' E 023°34'0 0.0
2017-Oct-12 09:28N 37°58' E 023°34'0 0.0
2017-Oct-12 09:00N 37°58' E 023°34'0 0.0
2017-Oct-12 08:29N 37°58' E 023°34'0 0.0
2017-Oct-12 07:57N 37°58' E 023°34'0 0.0
2017-Oct-12 07:30N 37°58' E 023°34'0 0.0
2017-Oct-12 06:45N 37°58' E 023°34'0 0.0
2017-Oct-12 06:29N 37°58' E 023°34'0 0.0
2017-Oct-12 05:58N 37°58' E 023°34'0 0.0
2017-Oct-10 09:11N 37°58' E 023°34'0 0.0
2017-Oct-10 08:59N 37°58' E 023°34'0 0.0
2017-Oct-10 08:28N 37°58' E 023°34'0 0.0
2017-Oct-10 07:58N 37°58' E 023°34'0 0.0
2017-Oct-10 07:28N 37°58' E 023°34'0 0.0
2017-Oct-10 06:54N 37°58' E 023°34'0 0.0
2017-Oct-10 06:29N 37°58' E 023°34'0 0.0
2017-Oct-10 05:57N 37°58' E 023°34'0 0.0
2017-Oct-10 05:30N 37°58' E 023°34'0 0.0
2017-Oct-10 04:43N 37°58' E 023°34'0 0.0
2017-Oct-10 04:29N 37°58' E 023°34'0 0.0
2017-Oct-10 03:57N 37°58' E 023°34'0 0.0
2017-Oct-10 03:26N 37°58' E 023°34'0 0.0
2017-Oct-10 02:58N 37°58' E 023°34'0 0.0
2017-Oct-10 02:28N 37°58' E 023°34'0 0.0
2017-Oct-10 01:55N 37°58' E 023°34'0 0.0
2017-Oct-10 01:29N 37°58' E 023°34'0 0.0
2017-Oct-10 00:59N 37°58' E 023°34'0 0.0
2017-Oct-10 00:30N 37°58' E 023°34'0 0.0
2017-Oct-09 23:59N 37°58' E 023°34'0 0.0
2017-Oct-09 23:23N 37°58' E 023°34'0 0.0
2017-Oct-09 22:58N 37°58' E 023°34'0 0.0
2017-Oct-09 22:28N 37°58' E 023°34'0 0.0
2017-Oct-09 21:58N 37°58' E 023°34'0 0.0
2017-Oct-09 21:23N 37°58' E 023°34'0 0.0
2017-Oct-09 21:00N 37°58' E 023°34'0 0.0
2017-Oct-09 20:28N 37°58' E 023°34'0 0.0
2017-Oct-09 19:59N 37°58' E 023°34'0 0.0
2017-Oct-09 19:25N 37°58' E 023°34'0 0.0
2017-Oct-09 19:00N 37°58' E 023°34'0 0.0
2017-Oct-09 18:29N 37°58' E 023°34'0 0.0
2017-Oct-09 17:59N 37°58' E 023°34'0 0.0
2017-Oct-09 17:24N 37°58' E 023°34'0 0.0
2017-Oct-09 16:59N 37°58' E 023°34'0 0.0
2017-Oct-09 16:29N 37°58' E 023°34'0 0.0
2017-Oct-09 15:57N 37°58' E 023°34'0 0.0
2017-Oct-09 15:28N 37°58' E 023°34'0 0.0
2017-Oct-09 14:59N 37°58' E 023°34'0 0.0
2017-Oct-09 14:27N 37°58' E 023°34'0 0.0
2017-Oct-09 14:00N 37°58' E 023°34'0 0.0
2017-Oct-09 13:28N 37°58' E 023°34'0 0.0
2017-Oct-09 13:00N 37°58' E 023°34'0 0.0
2017-Oct-09 12:28N 37°58' E 023°34'0 0.0
2017-Oct-09 12:00N 37°58' E 023°34'0 0.0
2017-Oct-09 11:29N 37°58' E 023°34'0 0.0
2017-Oct-09 11:00N 37°58' E 023°34'0 0.0
2017-Oct-09 08:58N 37°58' E 023°34'0 0.0
2017-Oct-09 08:26N 37°58' E 023°34'0 0.0
2017-Oct-09 07:59N 37°58' E 023°34'0 0.0
2017-Oct-09 07:25N 37°58' E 023°34'0 0.0
2017-Oct-07 09:15N 37°58' E 023°34'0 0.0
2017-Oct-06 10:29N 37°58' E 023°34'0 0.0
2017-Oct-06 09:56N 37°58' E 023°34'0 0.0
2017-Oct-06 09:30N 37°58' E 023°34'0 0.0
2017-Oct-06 08:23N 37°58' E 023°34'0 0.0
2017-Oct-06 06:33N 37°58' E 023°34'0 0.0
2017-Oct-05 11:46N 37°58' E 023°34'0 0.0
2017-Oct-05 11:28N 37°58' E 023°34'0 0.0
2017-Oct-05 09:11N 37°58' E 023°34'0 0.0
2017-Oct-05 08:58N 37°58' E 023°34'  
Track history (hours):
 
Tides and Currents Weather Stations Pressure Air Temp Water Temp Dewpoint Dewpoint Depression Visibility Wind Speed Wind Dir Waves Ship Positions

Agia Paraskevi

Last reported at 2017-Oct-15 07:32 UTC. Time now 2017-Oct-17 23:57 UTC.
Position N 37°19' E 023°23'.

Length 19 m; draft 1.5 m.

Type: Port tender. MMSI: 237935300.

Date/timePositionNaut miles runAvg speedWind from/ knotsBaromVisibWave heightAir tempDewpointWater temp
2017-Oct-15 07:32N 37°19' E 023°23'1 9.2
2017-Oct-15 07:24N 37°20' E 023°24'20 8.4
2017-Oct-15 05:00N 37°38' E 023°35'5 9.3
2017-Oct-15 04:30N 37°42' E 023°35'5 9.4
2017-Oct-15 04:00N 37°47' E 023°34'5 9.4
2017-Oct-15 03:31N 37°52' E 023°34'5 9.0
2017-Oct-15 03:00N 37°56' E 023°35'1 0.1
2017-Oct-14 11:57N 37°58' E 023°34'0 0.0
2017-Oct-14 11:30N 37°58' E 023°34'0 0.0
2017-Oct-14 10:58N 37°58' E 023°34'0 0.0
2017-Oct-14 10:28N 37°58' E 023°34'0 0.0
2017-Oct-14 09:57N 37°58' E 023°34'0 0.0
2017-Oct-14 09:25N 37°58' E 023°34'0 0.0
2017-Oct-14 09:00N 37°58' E 023°34'0 0.3
2017-Oct-14 08:30N 37°57' E 023°34'0 0.3
2017-Oct-14 07:58N 37°58' E 023°34'0 0.0
2017-Oct-13 10:07N 37°58' E 023°34'0 0.0
2017-Oct-13 09:57N 37°58' E 023°34'0 0.0
2017-Oct-13 08:00N 37°58' E 023°34'0 0.0
2017-Oct-13 05:18N 37°58' E 023°34'0 0.0
2017-Oct-12 10:41N 37°58' E 023°34'0 0.0
2017-Oct-12 09:57N 37°58' E 023°34'0 0.0
2017-Oct-12 09:28N 37°58' E 023°34'0 0.0
2017-Oct-12 09:00N 37°58' E 023°34'0 0.0
2017-Oct-12 08:29N 37°58' E 023°34'0 0.0
2017-Oct-12 07:57N 37°58' E 023°34'0 0.0
2017-Oct-12 07:30N 37°58' E 023°34'0 0.0
2017-Oct-12 06:45N 37°58' E 023°34'0 0.0
2017-Oct-12 06:29N 37°58' E 023°34'0 0.0
2017-Oct-12 05:58N 37°58' E 023°34'0 0.0
2017-Oct-10 09:11N 37°58' E 023°34'0 0.0
2017-Oct-10 08:59N 37°58' E 023°34'0 0.0
2017-Oct-10 08:28N 37°58' E 023°34'0 0.0
2017-Oct-10 07:58N 37°58' E 023°34'0 0.0
2017-Oct-10 07:28N 37°58' E 023°34'0 0.0
2017-Oct-10 06:54N 37°58' E 023°34'0 0.0
2017-Oct-10 06:29N 37°58' E 023°34'0 0.0
2017-Oct-10 05:57N 37°58' E 023°34'0 0.0
2017-Oct-10 05:30N 37°58' E 023°34'0 0.0
2017-Oct-10 04:43N 37°58' E 023°34'0 0.0
2017-Oct-10 04:29N 37°58' E 023°34'0 0.0
2017-Oct-10 03:57N 37°58' E 023°34'0 0.0
2017-Oct-10 03:26N 37°58' E 023°34'0 0.0
2017-Oct-10 02:58N 37°58' E 023°34'0 0.0
2017-Oct-10 02:28N 37°58' E 023°34'0 0.0
2017-Oct-10 01:55N 37°58' E 023°34'0 0.0
2017-Oct-10 01:29N 37°58' E 023°34'0 0.0
2017-Oct-10 00:59N 37°58' E 023°34'0 0.0
2017-Oct-10 00:30N 37°58' E 023°34'0 0.0
2017-Oct-09 23:59N 37°58' E 023°34'0 0.0
2017-Oct-09 23:23N 37°58' E 023°34'0 0.0
2017-Oct-09 22:58N 37°58' E 023°34'0 0.0
2017-Oct-09 22:28N 37°58' E 023°34'0 0.0
2017-Oct-09 21:58N 37°58' E 023°34'0 0.0
2017-Oct-09 21:23N 37°58' E 023°34'0 0.0
2017-Oct-09 21:00N 37°58' E 023°34'0 0.0
2017-Oct-09 20:28N 37°58' E 023°34'0 0.0
2017-Oct-09 19:59N 37°58' E 023°34'0 0.0
2017-Oct-09 19:25N 37°58' E 023°34'0 0.0
2017-Oct-09 19:00N 37°58' E 023°34'0 0.0
2017-Oct-09 18:29N 37°58' E 023°34'0 0.0
2017-Oct-09 17:59N 37°58' E 023°34'0 0.0
2017-Oct-09 17:24N 37°58' E 023°34'0 0.0
2017-Oct-09 16:59N 37°58' E 023°34'0 0.0
2017-Oct-09 16:29N 37°58' E 023°34'0 0.0
2017-Oct-09 15:57N 37°58' E 023°34'0 0.0
2017-Oct-09 15:28N 37°58' E 023°34'0 0.0
2017-Oct-09 14:59N 37°58' E 023°34'0 0.0
2017-Oct-09 14:27N 37°58' E 023°34'0 0.0
2017-Oct-09 14:00N 37°58' E 023°34'0 0.0
2017-Oct-09 13:28N 37°58' E 023°34'0 0.0
2017-Oct-09 13:00N 37°58' E 023°34'0 0.0
2017-Oct-09 12:28N 37°58' E 023°34'0 0.0
2017-Oct-09 12:00N 37°58' E 023°34'0 0.0
2017-Oct-09 11:29N 37°58' E 023°34'0 0.0
2017-Oct-09 11:00N 37°58' E 023°34'0 0.0
2017-Oct-09 08:58N 37°58' E 023°34'0 0.0
2017-Oct-09 08:26N 37°58' E 023°34'0 0.0
2017-Oct-09 07:59N 37°58' E 023°34'0 0.0
2017-Oct-09 07:25N 37°58' E 023°34'0 0.0
2017-Oct-07 09:15N 37°58' E 023°34'0 0.0
2017-Oct-06 10:29N 37°58' E 023°34'0 0.0
2017-Oct-06 09:56N 37°58' E 023°34'0 0.0
2017-Oct-06 09:30N 37°58' E 023°34'0 0.0
2017-Oct-06 08:23N 37°58' E 023°34'0 0.0
2017-Oct-06 06:33N 37°58' E 023°34'0 0.0
2017-Oct-05 11:46N 37°58' E 023°34'0 0.0
2017-Oct-05 11:28N 37°58' E 023°34'0 0.0
2017-Oct-05 09:11N 37°58' E 023°34'0 0.0
2017-Oct-05 08:58N 37°58' E 023°34'  

Dump ship's entire track history